Latest Weather Observations for kunanyi / Mount Wellington

IDT60801

Issued at 11:21 am EDT Thursday 1 December 2022 (issued every 10 minutes, with the page automatically refreshed every 10 minutes)

About weather observations | Map of weather stations | Latest weather observations for TAS | Other Formats
Station Details ID: 094087 Name: KUNANYI (MOUNT WELLINGTON PINNACLE) Lat: -42.90 Lon: 147.24 Height: 1260.47 m
Data from the previous 72 hours. | See also: Recent months at kunanyi / Mount Wellington
Date/Time
EDT
Temp
°C
App
Temp
°C
Dew
Point
°C
Rel
Hum
%
Delta-T
°C
Wind Press
QNH
hPa
Press
MSL
hPa
Rain since
9am
mm
Dir  Spd
km/h
Gust
km/h
Spd
kts
Gust
kts
01/11:00am 3.1 -1.7 0.0 80 1.3 WSW 15 22 8 12 - - 0.0
01/10:30am 2.5 -3.4 -0.8 79 1.3 WSW 20 26 11 14 - - 0.0
01/10:00am 2.6 -3.6 -0.3 81 1.2 WSW 22 30 12 16 - - 0.0
01/09:30am 1.3 -4.5 0.0 91 0.5 WSW 20 28 11 15 - - 0.0
01/09:00am 1.5 -4.3 0.0 90 0.6 SW 20 28 11 15 - - 0.2
01/08:30am 1.3 -4.4 -0.6 87 0.7 WSW 19 26 10 14 - - 0.2
01/08:00am 0.7 -6.0 -1.1 88 0.7 WSW 24 33 13 18 - - 0.2
01/07:30am 0.1 -6.5 -0.3 97 0.2 WSW 24 32 13 17 - - 0.2
01/07:00am 0.3 -4.5 0.2 99 0.0 SW 15 22 8 12 - - 0.2
01/06:30am 0.5 -4.3 0.2 98 0.1 WSW 15 22 8 12 - - 0.2
01/06:00am 0.8 -4.0 0.5 98 0.1 WSW 15 20 8 11 - - 0.2
01/05:30am 0.9 -4.6 0.5 97 0.2 W 19 24 10 13 - - 0.2
01/05:00am 1.0 -4.5 0.7 98 0.1 W 19 24 10 13 - - 0.2
01/04:30am 1.2 -4.3 0.9 98 0.1 WSW 19 26 10 14 - - 0.2
01/04:00am 1.8 -2.8 1.7 99 0.0 W 15 20 8 11 - - 0.2
01/03:30am 2.1 -3.2 2.0 99 0.0 WNW 19 24 10 13 - - 0.2
01/03:00am 2.4 -3.4 2.3 99 0.0 WNW 22 30 12 16 - - 0.2
01/02:30am 2.5 -3.7 2.4 99 0.0 WNW 24 30 13 16 - - 0.2
01/02:00am 2.4 -4.2 1.8 96 0.3 NW 26 32 14 17 - - 0.2
01/01:30am 2.2 -4.5 1.6 96 0.3 W 26 30 14 16 - - 0.2
01/01:00am 2.4 -3.9 1.8 96 0.3 W 24 35 13 19 - - 0.2
01/12:30am 2.5 -4.3 0.6 87 0.8 W 26 33 14 18 - - 0.2
01/12:00am 2.7 -3.8 0.6 86 0.9 W 24 35 13 19 - - 0.2
 
Date/Time
EDT
Temp
°C
App
Temp
°C
Dew
Point
°C
Rel
Hum
%
Delta-T
°C
Wind Press
QNH
hPa
Press
MSL
hPa
Rain since
9am
mm
Dir  Spd
km/h
Gust
km/h
Spd
kts
Gust
kts
30/11:30pm 2.8 -2.6 1.0 88 0.7 W 19 24 10 13 - - 0.2
30/11:00pm 2.5 -3.9 1.0 90 0.6 WSW 24 35 13 19 - - 0.2
30/10:30pm 3.0 -2.4 1.1 87 0.8 W 19 28 10 15 - - 0.2
30/10:00pm 3.3 -3.0 1.8 90 0.6 W 24 32 13 17 - - 0.2
30/09:30pm 3.7 -2.1 2.4 91 0.6 WNW 22 39 12 21 - - 0.2
30/09:00pm 3.6 -1.2 2.7 94 0.4 W 17 22 9 12 - - 0.2
30/08:30pm 4.1 0.1 3.1 93 0.4 W 13 20 7 11 - - 0.2
30/08:00pm 4.3 -1.1 2.5 88 0.8 WSW 20 28 11 15 - - 0.2
30/07:30pm 5.0 1.1 3.3 89 0.8 WSW 13 19 7 10 - - 0.2
30/07:00pm 5.8 0.0 2.3 78 1.5 WSW 22 30 12 16 - - 0.2
30/06:30pm 7.1 1.9 2.4 72 2.1 W 19 26 10 14 - - 0.2
30/06:00pm 6.7 0.3 3.0 77 1.7 WSW 26 35 14 19 - - 0.2
30/05:30pm 7.3 1.3 3.5 77 1.7 W 24 32 13 17 - - 0.2
30/05:00pm 7.2 -1.0 2.9 74 2.0 WSW 35 46 19 25 - - 0.2
30/04:30pm 7.0 -2.7 3.1 76 1.8 WSW 43 61 23 33 - - 0.2
30/04:15pm 6.9 -1.2 3.5 79 1.6 WSW 35 56 19 30 - - 0.2
30/04:00pm 7.8 -1.6 4.6 80 1.5 WSW 43 54 23 29 - - 0.2
30/03:30pm 5.8 -2.4 4.8 93 0.5 WSW 37 50 20 27 - - 0.2
30/03:22pm 6.2 -0.1 5.8 97 0.2 WSW 28 50 15 27 - - 0.2
30/03:00pm 6.3 0.8 6.0 98 0.1 WSW 24 32 13 17 - - 0.0
30/02:30pm 6.7 1.7 6.4 98 0.1 WSW 22 30 12 16 - - 0.0
30/02:00pm 7.0 2.3 5.3 89 0.8 WSW 19 32 10 17 - - 0.0
30/01:30pm 7.2 1.2 5.3 88 0.9 WSW 26 39 14 21 - - 0.0
30/01:00pm 6.8 1.1 4.8 87 0.9 WSW 24 39 13 21 - - 0.0
30/12:30pm 6.8 -0.1 6.4 97 0.2 WSW 32 46 17 25 - - 0.0
30/12:02pm 6.2 -0.6 5.3 94 0.4 WSW 30 48 16 26 - - 0.0
30/12:00pm 6.5 -0.6 5.6 94 0.4 WSW 32 48 17 26 - - 0.0
30/11:30am 8.0 -1.5 4.8 80 1.5 W 44 65 24 35 - - 0.0
30/11:00am 7.0 -4.1 4.5 84 1.2 WSW 52 70 28 38 - - 0.0
30/10:30am 7.0 -6.3 4.1 82 1.4 W 63 82 34 44 - - 0.0
30/10:05am 6.8 -5.7 3.9 82 1.3 W 59 78 32 42 - - 0.0
30/10:00am 6.5 -6.5 3.5 81 1.4 W 61 78 33 42 - - 0.0
30/09:30am 6.2 -8.0 3.2 81 1.4 W 67 85 36 46 - - 0.0
30/09:19am 6.0 -8.6 3.2 82 1.3 W 69 87 37 47 - - 0.0
30/09:00am 5.5 -9.3 3.2 85 1.0 W 70 83 38 45 - - 0.2
30/08:39am 5.3 -8.5 3.0 85 1.0 WSW 65 91 35 49 - - 0.2
30/08:30am 5.2 -7.6 2.7 84 1.1 WSW 59 78 32 42 - - 0.2
30/08:00am 4.8 -7.4 2.7 86 0.9 WSW 56 76 30 41 - - 0.2
30/07:30am 4.2 -10.0 2.9 91 0.6 WSW 67 87 36 47 - - 0.2
30/07:00am 3.6 -9.1 2.9 95 0.3 WSW 59 80 32 43 - - 0.2
30/06:40am 3.6 -8.2 2.6 93 0.4 WSW 54 74 29 40 - - 0.2
30/06:30am 3.5 -8.9 2.5 93 0.4 WSW 57 72 31 39 - - 0.2
30/06:01am 3.5 -10.9 1.9 89 0.7 W 67 87 36 47 - - 0.2
30/06:00am 3.6 -10.8 1.8 88 0.8 W 67 83 36 45 - - 0.2
30/05:30am 3.1 -11.9 2.1 93 0.4 W 70 91 38 49 - - 0.2
30/05:00am 3.0 -11.9 1.2 88 0.8 W 69 91 37 49 - - 0.2
30/04:35am 2.6 -10.0 1.6 93 0.4 WSW 57 76 31 41 - - 0.2
30/04:30am 2.4 -10.2 1.4 93 0.4 WSW 57 72 31 39 - - 0.2
30/04:00am 2.3 -11.5 1.0 91 0.5 W 63 89 34 48 - - 0.2
30/03:56am 2.3 -11.5 1.0 91 0.5 W 63 83 34 45 - - 0.2
30/03:30am 2.3 -12.8 1.0 91 0.5 W 70 87 38 47 - - 0.2
30/03:23am 2.3 -13.2 1.0 91 0.5 W 72 87 39 47 - - 0.2
30/03:12am 2.0 -10.5 0.8 92 0.5 W 56 76 30 41 - - 0.2
30/03:00am 1.8 -11.7 0.8 93 0.4 W 61 76 33 41 - - 0.2
30/02:30am 2.3 -10.9 0.2 86 0.8 W 59 72 32 39 - - 0.2
30/02:09am 1.8 -11.3 0.6 92 0.5 W 59 78 32 42 - - 0.2
30/02:00am 1.9 -11.6 0.6 91 0.5 W 61 78 33 42 - - 0.2
30/01:30am 1.7 -11.0 0.8 94 0.4 WSW 57 72 31 39 - - 0.2
30/01:00am 1.5 -11.3 0.3 92 0.5 WSW 57 70 31 38 - - 0.2
30/12:30am 1.4 -11.2 0.2 92 0.5 W 56 65 30 35 - - 0.2
30/12:00am 1.6 -9.5 0.3 91 0.5 W 48 63 26 34 - - 0.2
 
Date/Time
EDT
Temp
°C
App
Temp
°C
Dew
Point
°C
Rel
Hum
%
Delta-T
°C
Wind Press
QNH
hPa
Press
MSL
hPa
Rain since
9am
mm
Dir  Spd
km/h
Gust
km/h
Spd
kts
Gust
kts
29/11:33pm 1.6 -8.5 0.4 92 0.5 W 43 65 23 35 - - 0.2
29/11:30pm 1.7 -7.6 0.4 91 0.5 W 39 56 21 30 - - 0.2
29/11:07pm 1.8 -7.9 0.2 89 0.6 W 41 59 22 32 - - 0.2
29/11:00pm 1.8 -7.2 0.2 89 0.6 W 37 52 20 28 - - 0.2
29/10:54pm 1.6 -6.4 0.4 92 0.5 W 32 52 17 28 - - 0.2
29/10:30pm 1.5 -8.8 0.6 94 0.4 W 44 59 24 32 - - 0.2
29/10:00pm 1.7 -9.0 -0.1 88 0.7 WNW 46 63 25 34 - - 0.2
29/09:30pm 1.8 -9.0 -0.4 85 0.9 WNW 46 67 25 36 - - 0.2
29/09:29pm 1.7 -9.1 -0.5 85 0.9 WNW 46 67 25 36 - - 0.2
29/09:00pm 1.9 -7.8 0.3 89 0.6 W 41 52 22 28 - - 0.2
29/08:30pm 2.3 -5.0 0.0 85 0.9 WNW 28 35 15 19 - - 0.2
29/08:00pm 3.0 -3.2 -0.6 77 1.4 WNW 22 35 12 19 - - 0.2
29/07:30pm 3.5 -4.7 -0.7 74 1.7 W 32 43 17 23 - - 0.2
29/07:00pm 4.8 -2.6 -0.6 68 2.2 W 28 39 15 21 - - 0.2
29/06:30pm 5.1 -1.9 -0.3 68 2.2 WSW 26 41 14 22 - - 0.2
29/06:00pm 5.7 -1.2 0.3 68 2.3 WSW 26 39 14 21 - - 0.2
29/05:30pm 6.3 -0.6 0.2 65 2.6 W 26 44 14 24 - - 0.2
29/05:00pm 5.8 -2.3 0.0 66 2.4 WSW 32 43 17 23 - - 0.2
29/04:30pm 5.5 -2.6 -0.1 67 2.3 WSW 32 41 17 22 - - 0.2
29/04:00pm 6.3 -2.6 0.8 68 2.4 WSW 37 46 20 25 - - 0.2
29/03:45pm 6.0 -3.3 0.3 67 2.4 WSW 39 57 21 31 - - 0.2
29/03:30pm 5.8 -4.8 0.8 70 2.1 WSW 46 61 25 33 - - 0.2
29/03:00pm 4.9 -4.5 -0.1 70 2.1 WSW 39 52 21 28 - - 0.2
29/02:30pm 4.5 -4.2 1.7 82 1.2 WSW 37 54 20 29 - - 0.2
29/02:00pm 5.7 -2.4 1.2 73 1.9 WSW 33 44 18 24 - - 0.2
29/01:30pm 5.2 -5.1 0.2 70 2.1 WSW 44 61 24 33 - - 0.2
29/01:00pm 4.5 -5.1 1.4 80 1.3 WSW 41 52 22 28 - - 0.2
29/12:34pm 4.3 -5.6 1.8 84 1.1 WSW 43 61 23 33 - - 0.2
29/12:30pm 4.2 -5.6 2.4 88 0.8 WSW 43 52 23 28 - - 0.2
29/12:00pm 3.7 -6.6 0.6 80 1.3 WSW 44 57 24 31 - - 0.2
29/11:36am 3.8 -6.5 2.6 92 0.5 WSW 46 67 25 36 - - 0.2
29/11:30am 2.6 -9.1 1.0 89 0.7 WSW 52 70 28 38 - - 0.0
29/11:03am 0.9 -11.6 0.5 97 0.2 WSW 56 74 30 40 - - 0.0
29/11:00am 1.0 -12.1 0.4 96 0.2 WSW 59 74 32 40 - - 0.0
29/10:31am 0.4 -11.4 0.3 99 0.0 WSW 52 70 28 38 - - 0.0
29/10:30am 0.2 -11.6 0.1 99 0.0 WSW 52 69 28 37 - - 0.0
29/10:00am 0.5 -12.1 0.4 99 0.0 WSW 56 74 30 40 - - 0.0
29/09:34am 0.0 -11.5 -0.1 99 0.0 WSW 50 72 27 39 - - 0.0
29/09:30am -0.2 -11.7 -0.3 99 0.0 WSW 50 65 27 35 - - 0.0
29/09:00am -0.2 -11.0 -0.3 99 0.0 WSW 46 65 25 35 - - 0.8
29/08:30am -0.5 -12.8 -0.6 99 0.0 WSW 54 74 29 40 - - 0.8
29/08:00am -0.5 -11.3 -0.8 98 0.1 WSW 46 67 25 36 - - 0.8
29/07:54am -0.5 -11.7 -0.8 98 0.1 WSW 48 67 26 36 - - 0.8
29/07:30am -0.9 -12.5 -1.0 99 0.0 WSW 50 65 27 35 - - 0.8
29/07:03am -1.1 -10.7 -1.4 98 0.1 WSW 39 57 21 31 - - 0.8
29/07:00am -1.0 -10.6 -1.3 98 0.1 WSW 39 56 21 30 - - 0.8
29/06:30am -1.3 -11.3 -1.6 98 0.0 WSW 41 56 22 30 - - 0.8
29/06:16am -1.4 -11.0 -1.7 98 0.0 WSW 39 59 21 32 - - 0.8
29/06:00am -1.3 -11.6 -1.4 99 0.0 WSW 43 57 23 31 - - 0.8
29/05:33am -1.4 -13.5 -1.5 99 0.0 WSW 52 70 28 38 - - 0.8
29/05:30am -1.4 -13.1 -1.5 99 0.0 WSW 50 65 27 35 - - 0.8
29/05:00am -1.4 -12.7 -1.5 99 0.0 WSW 48 61 26 33 - - 0.8
29/04:30am -1.3 -13.4 -1.4 99 0.0 WSW 52 67 28 36 - - 0.8
29/04:13am -1.3 -13.4 -1.4 99 0.0 WSW 52 70 28 38 - - 0.8
29/04:00am -1.3 -13.4 -1.4 99 0.0 WSW 52 65 28 35 - - 0.8
29/03:30am -1.2 -14.6 -1.3 99 0.0 WSW 59 76 32 41 - - 0.8
29/03:00am -1.2 -14.2 -1.5 98 0.1 WSW 57 76 31 41 - - 0.8
29/02:30am -1.2 -14.0 -1.3 99 0.0 WSW 56 67 30 36 - - 0.8
29/02:00am -0.9 -13.9 -1.0 99 0.0 WSW 57 72 31 39 - - 0.8
29/01:30am -0.9 -13.7 -1.0 99 0.0 WSW 56 72 30 39 - - 0.8
29/01:00am -0.5 -12.9 -0.8 98 0.1 WSW 54 67 29 36 - - 0.8
29/12:30am -0.3 -14.1 -1.3 93 0.4 WSW 61 83 33 45 - - 0.8
29/12:18am -0.4 -13.4 -1.5 92 0.4 WSW 57 78 31 42 - - 0.8
29/12:00am -0.2 -14.0 -1.3 92 0.4 WSW 61 76 33 41 - - 0.8
 
Date/Time
EDT
Temp
°C
App
Temp
°C
Dew
Point
°C
Rel
Hum
%
Delta-T
°C
Wind Press
QNH
hPa
Press
MSL
hPa
Rain since
9am
mm
Dir  Spd
km/h
Gust
km/h
Spd
kts
Gust
kts
28/11:47pm -0.1 -12.8 -0.4 98 0.1 WSW 56 76 30 41 - - 0.8
28/11:30pm 0.3 -11.2 0.2 99 0.0 WSW 50 61 27 33 - - 0.8
28/11:00pm 0.3 -10.8 0.2 99 0.0 WSW 48 69 26 37 - - 0.8
28/10:30pm 0.3 -12.5 0.2 99 0.0 WSW 57 69 31 37 - - 0.8
28/10:00pm 0.8 -11.0 0.5 98 0.1 W 52 74 28 40 - - 0.8
28/09:52pm 0.5 -11.7 0.4 99 0.0 WSW 54 74 29 40 - - 0.8
28/09:30pm 1.5 -9.0 1.4 99 0.0 WSW 46 61 25 33 - - 0.4
28/09:02pm 1.6 -8.3 1.5 99 0.0 W 43 65 23 35 - - 0.4
28/09:00pm 1.6 -7.9 1.5 99 0.0 W 41 54 22 29 - - 0.4
28/08:41pm 1.6 -7.9 1.5 99 0.0 W 41 61 22 33 - - 0.4
28/08:30pm 1.6 -7.6 1.5 99 0.0 W 39 54 21 29 - - 0.4
28/08:00pm 1.8 -7.7 1.5 98 0.1 WSW 41 56 22 30 - - 0.4
28/07:37pm 2.3 -6.8 2.0 98 0.1 WSW 39 57 21 31 - - 0.4
28/07:30pm 2.3 -6.8 2.0 98 0.1 WSW 39 57 21 31 - - 0.2
28/07:00pm 3.0 -7.3 2.7 98 0.1 W 46 78 25 42 - - 0.2
28/06:43pm 3.1 -6.6 3.0 99 0.0 W 43 69 23 37 - - 0.2
28/06:30pm 2.9 -6.8 2.8 99 0.0 WNW 43 56 23 30 - - 0.2
28/06:09pm 3.1 -7.2 2.5 96 0.3 WNW 46 65 25 35 - - 0.2
28/06:00pm 3.2 -7.1 2.6 96 0.3 WNW 46 65 25 35 - - 0.2
28/05:30pm 4.0 -8.2 2.8 92 0.5 W 56 80 30 43 - - 0.2
28/05:03pm 3.4 -8.8 2.4 93 0.4 W 56 76 30 41 - - 0.2
28/05:00pm 3.5 -8.9 2.5 93 0.4 W 57 76 31 41 - - 0.2
28/04:30pm 4.9 -5.1 4.5 97 0.2 W 46 69 25 37 - - 0.0
28/04:14pm 4.6 -4.2 3.4 92 0.5 W 39 57 21 31 - - 0.0
28/04:00pm 5.2 -4.6 3.2 87 0.9 WNW 44 59 24 32 - - 0.0
28/03:33pm 4.7 -4.9 3.2 90 0.7 WNW 43 72 23 39 - - 0.0
28/03:32pm 4.7 -4.9 3.4 91 0.6 WNW 43 72 23 39 - - 0.0
28/03:30pm 4.5 -3.9 3.5 93 0.4 WNW 37 57 20 31 - - 0.0
28/03:28pm 4.5 -3.5 3.6 94 0.4 WNW 35 54 19 29 - - 0.0
28/03:00pm 3.8 -4.3 3.5 98 0.1 WNW 35 50 19 27 - - 0.0
28/02:34pm 4.1 -4.4 3.2 94 0.4 WNW 37 56 20 30 - - 0.0
28/02:30pm 4.1 -4.4 3.2 94 0.4 WNW 37 54 20 29 - - 0.0
28/02:00pm 4.2 -5.7 3.0 92 0.5 WNW 44 63 24 34 - - 0.0
28/01:36pm 4.0 -6.7 2.7 91 0.6 WNW 48 67 26 36 - - 0.0
28/01:30pm 4.1 -6.6 2.5 89 0.7 WNW 48 63 26 34 - - 0.0
28/01:00pm 4.5 -6.8 3.3 92 0.5 W 52 74 28 40 - - 0.0
28/12:56pm 4.2 -6.3 3.5 95 0.3 W 48 70 26 38 - - 0.0
28/12:30pm 3.9 -7.9 2.6 91 0.6 WNW 54 69 29 37 - - 0.0
28/12:21pm 3.9 -5.8 2.7 92 0.5 WNW 43 67 23 36 - - 0.0
28/12:00pm 3.7 -6.1 2.4 91 0.6 WNW 43 59 23 32 - - 0.0
28/11:30am 4.2 -5.5 2.6 89 0.7 WNW 43 59 23 32 - - 0.0

Other formats

Comma delimited format used in spreadsheet applications
http://www.bom.gov.au/fwo/IDT60801/IDT60801.95979.axf

JavaScript Object Notation format (JSON) in row-major order
http://www.bom.gov.au/fwo/IDT60801/IDT60801.95979.json

Data quality

Most of these data are generated automatically and are frequently updated. Quality checks on data are not normally performed. It is possible for incorrect values to appear. Refer to information at About Latest Weather Observations and please check the disclaimer before using these data.